Time;durP1;ratioP1;P1;durP2;ratioP2;P2;SDS_P1;SDS_P2;PMS_P1;PMS_P2;Temp;Humidity;BMP_temperature;BMP_pressure;BME280_temperature;BME280_humidity;BME280_pressure;Samples;Min_cycle;Max_cycle;Signal;HPM_P1;HPM_P2
2021/09/12 00:02:19;;;;;;;3.63;2.80;;;;;;;15.79;64.81;97524.41;4965660;28;20084;-76
2021/09/12 00:04:45;;;;;;;2.58;2.38;;;;;;;15.78;64.67;97528.09;4943156;29;20062;-76
2021/09/12 00:07:10;;;;;;;2.95;2.63;;;;;;;15.70;65.10;97518.13;4932256;29;20043;-76
2021/09/12 00:09:36;;;;;;;3.40;2.58;;;;;;;15.67;64.98;97518.66;4948892;29;20063;-76
2021/09/12 00:12:01;;;;;;;2.55;2.35;;;;;;;15.64;64.84;97517.34;4965130;28;20526;-76
2021/09/12 00:14:26;;;;;;;2.97;2.65;;;;;;;15.69;64.37;97517.31;4965009;28;20027;-76
2021/09/12 00:16:52;;;;;;;4.38;2.75;;;;;;;15.74;64.15;97522.53;4948537;29;20410;-76
2021/09/12 00:19:18;;;;;;;2.22;2.03;;;;;;;15.72;63.83;97527.28;4964343;28;20365;-76
2021/09/12 00:21:44;;;;;;;3.45;2.03;;;;;;;15.68;63.89;97525.47;4965022;28;20475;-76
2021/09/12 00:24:09;;;;;;;2.92;2.03;;;;;;;15.63;64.18;97523.66;4948926;29;20515;-76
2021/09/12 00:26:35;;;;;;;2.65;2.40;;;;;;;15.57;64.43;97519.47;4947599;29;20035;-76
2021/09/12 00:29:00;;;;;;;3.85;2.70;;;;;;;15.55;64.55;97517.09;4948289;29;20031;-76
2021/09/12 00:31:26;;;;;;;2.05;1.88;;;;;;;15.49;64.77;97514.75;4964605;28;20118;-76
2021/09/12 00:33:52;;;;;;;4.50;2.60;;;;;;;15.48;64.70;97511.34;4948873;29;20034;-76
2021/09/12 00:36:18;;;;;;;2.67;2.35;;;;;;;15.46;64.75;97508.22;4934870;29;20023;-76
2021/09/12 00:38:43;;;;;;;2.38;2.10;;;;;;;15.44;64.77;97504.28;4940080;29;20164;-76
2021/09/12 00:41:08;;;;;;;2.75;2.28;;;;;;;15.42;64.78;97507.19;4939892;28;20437;-76
2021/09/12 00:43:34;;;;;;;2.45;2.25;;;;;;;15.45;64.75;97501.38;4936167;29;20395;-76
2021/09/12 00:46:06;;;;;;;3.15;2.47;;;;;;;15.52;64.16;97515.03;4919293;29;20209;-76
2021/09/12 00:48:31;;;;;;;2.45;2.25;;;;;;;15.45;64.44;97511.09;4934644;29;20577;-76
2021/09/12 00:50:56;;;;;;;3.47;2.58;;;;;;;15.42;64.19;97516.88;4947594;29;20044;-76
2021/09/12 00:53:22;;;;;;;2.33;2.13;;;;;;;15.33;64.49;97509.56;4953410;28;20071;-76
2021/09/12 00:55:47;;;;;;;2.47;2.17;;;;;;;15.31;64.68;97511.66;4934921;29;20039;-76
2021/09/12 00:58:17;;;;;;;2.05;1.85;;;;;;;15.16;64.86;97509.88;4945740;29;20070;-76
2021/09/12 01:00:45;;;;;;;3.78;2.38;;;;;;;15.12;64.91;97508.81;4937289;29;20063;-76
2021/09/12 01:03:11;;;;;;;3.22;2.28;;;;;;;15.20;64.69;97506.69;4940214;23;20074;-80
2021/09/12 01:05:36;;;;;;;2.30;2.10;;;;;;;15.20;64.69;97510.13;4945012;29;20466;-77
2021/09/12 01:08:03;;;;;;;3.58;1.95;;;;;;;15.09;64.54;97509.34;4935001;29;20035;-77
2021/09/12 01:10:28;;;;;;;2.42;2.22;;;;;;;15.09;65.00;97505.94;4934517;29;20429;-77
2021/09/12 01:12:54;;;;;;;2.92;2.38;;;;;;;15.06;65.08;97509.09;4951365;29;20032;-77
2021/09/12 01:15:19;;;;;;;3.30;2.80;;;;;;;15.04;65.11;97514.59;4941897;29;20268;-77
2021/09/12 01:17:45;;;;;;;3.33;2.20;;;;;;;15.04;65.06;97509.34;4964938;28;20032;-77
2021/09/12 01:20:11;;;;;;;2.33;2.13;;;;;;;15.05;65.19;97507.53;4931845;29;20028;-77
2021/09/12 01:22:37;;;;;;;2.35;2.15;;;;;;;15.04;65.09;97505.94;4960110;28;20154;-78
2021/09/12 01:25:02;;;;;;;3.10;2.40;;;;;;;14.96;65.19;97502.03;4967916;28;20533;-77
2021/09/12 01:27:28;;;;;;;4.05;2.45;;;;;;;14.94;65.36;97504.13;4968511;28;20046;-77
2021/09/12 01:29:53;;;;;;;2.78;2.47;;;;;;;14.89;65.54;97502.31;4941016;29;20055;-78
2021/09/12 01:32:19;;;;;;;3.15;2.33;;;;;;;14.96;65.53;97502.03;4947932;29;20166;-77
2021/09/12 01:34:44;;;;;;;2.38;2.13;;;;;;;14.93;65.63;97494.69;4952017;29;20023;-77
2021/09/12 01:37:10;;;;;;;2.70;2.50;;;;;;;14.90;65.35;97500.47;4936657;29;20501;-78
2021/09/12 01:39:35;;;;;;;2.42;2.22;;;;;;;14.95;65.75;97498.63;4936025;29;20023;-77
2021/09/12 01:42:00;;;;;;;2.33;2.08;;;;;;;14.99;65.55;97491.00;4952096;29;20067;-77
2021/09/12 01:44:26;;;;;;;4.25;2.38;;;;;;;14.98;65.56;97492.84;4951235;29;20058;-77
2021/09/12 01:46:52;;;;;;;2.63;2.13;;;;;;;14.97;65.38;97491.25;4919438;29;20039;-77
2021/09/12 01:49:18;;;;;;;2.22;2.03;;;;;;;14.98;65.34;97486.81;4919716;29;20319;-77
2021/09/12 01:51:43;;;;;;;2.92;2.22;;;;;;;14.98;65.10;97482.38;4935670;29;20090;-78
2021/09/12 01:54:09;;;;;;;3.65;2.20;;;;;;;14.95;65.20;97487.34;4951179;29;20031;-78
2021/09/12 01:56:34;;;;;;;2.42;2.13;;;;;;;14.92;65.37;97485.25;4935596;29;20039;-77
2021/09/12 01:59:00;;;;;;;2.92;2.40;;;;;;;14.81;64.99;97470.59;4951472;29;20039;-77
2021/09/12 02:01:26;;;;;;;3.40;2.40;;;;;;;14.84;65.32;97476.09;4951761;29;20082;-77
2021/09/12 02:03:51;;;;;;;2.50;2.30;;;;;;;14.82;64.98;97472.16;4943947;29;20040;-77
2021/09/12 02:06:17;;;;;;;4.03;2.22;;;;;;;14.88;64.61;97479.75;4885523;29;20130;-77
2021/09/12 02:08:43;;;;;;;3.00;2.25;;;;;;;14.87;64.31;97469.53;4900705;29;20306;-77
2021/09/12 02:11:12;;;;;;;2.33;1.88;;;;;;;14.87;64.13;97478.16;4916431;29;20391;-77
2021/09/12 02:13:38;;;;;;;2.67;1.90;;;;;;;14.88;63.67;97478.97;4915979;29;20192;-77
2021/09/12 02:16:04;;;;;;;2.97;2.35;;;;;;;14.89;63.99;97480.53;4916683;29;20032;-77
2021/09/12 02:18:29;;;;;;;2.53;2.33;;;;;;;14.83;64.06;97481.59;4915884;29;20039;-77
2021/09/12 02:20:55;;;;;;;2.30;2.10;;;;;;;14.76;64.38;97482.66;4916345;29;20031;-77
2021/09/12 02:23:21;;;;;;;3.00;2.22;;;;;;;14.68;64.69;97491.03;4916113;29;20039;-77
2021/09/12 02:25:46;;;;;;;3.22;2.30;;;;;;;14.57;65.10;97484.97;4931956;29;20035;-77
2021/09/12 02:28:11;;;;;;;4.75;2.30;;;;;;;14.54;65.38;97477.63;4884755;29;20123;-77
2021/09/12 02:30:37;;;;;;;2.45;2.08;;;;;;;14.52;65.58;97479.75;4884456;29;20412;-77
2021/09/12 02:33:02;;;;;;;2.55;2.30;;;;;;;14.47;65.75;97482.38;4947626;29;20050;-78
2021/09/12 02:35:28;;;;;;;2.83;2.30;;;;;;;14.48;65.41;97468.22;4931914;29;20175;-77
2021/09/12 02:37:53;;;;;;;3.78;2.30;;;;;;;14.50;65.59;97471.38;4884862;29;20035;-77
2021/09/12 02:40:20;;;;;;;3.83;2.25;;;;;;;14.46;65.47;97461.66;4915843;29;20106;-77
2021/09/12 02:42:45;;;;;;;2.55;2.20;;;;;;;14.53;65.41;97472.66;4932800;29;20058;-77
2021/09/12 02:45:11;;;;;;;2.30;2.10;;;;;;;14.49;65.38;97463.75;4915464;29;20031;-77
2021/09/12 02:47:36;;;;;;;3.00;1.88;;;;;;;14.47;65.45;97461.41;4899765;29;20550;-77
2021/09/12 02:50:03;;;;;;;2.15;1.95;;;;;;;14.52;65.23;97460.63;4931541;29;20574;-78
2021/09/12 02:52:29;;;;;;;2.83;1.98;;;;;;;14.58;65.51;97464.78;4928684;29;20514;-77
2021/09/12 02:54:54;;;;;;;2.38;2.00;;;;;;;14.55;65.40;97467.97;4915464;29;20036;-78
2021/09/12 02:57:19;;;;;;;3.85;1.60;;;;;;;14.55;65.34;97467.97;4899849;29;20499;-77
2021/09/12 02:59:45;;;;;;;3.15;2.10;;;;;;;14.57;65.47;97466.66;4899936;29;20423;-77
2021/09/12 03:02:10;;;;;;;2.42;2.22;;;;;;;14.55;65.52;97466.13;4899821;29;20050;-77
2021/09/12 03:04:35;;;;;;;2.67;2.47;;;;;;;14.56;65.80;97461.66;4883677;29;20036;-77
2021/09/12 03:07:01;;;;;;;2.28;2.05;;;;;;;14.55;65.67;97465.34;4884432;29;20028;-77
2021/09/12 03:09:29;;;;;;;3.75;2.20;;;;;;;14.55;65.37;97473.22;4884010;29;20471;-78
2021/09/12 03:11:54;;;;;;;2.97;1.80;;;;;;;14.60;64.67;97460.13;4899845;29;20075;-77
2021/09/12 03:14:20;;;;;;;3.13;2.10;;;;;;;14.59;64.97;97469.81;4915170;29;20063;-77
2021/09/12 03:16:47;;;;;;;2.20;2.00;;;;;;;14.50;64.81;97460.09;4899624;29;20035;-77
2021/09/12 03:19:13;;;;;;;2.60;2.08;;;;;;;14.48;65.31;97468.22;4915738;29;20027;-77
2021/09/12 03:21:39;;;;;;;1.95;1.70;;;;;;;14.45;65.37;97467.97;4915313;29;20039;-79
2021/09/12 03:24:04;;;;;;;2.42;2.08;;;;;;;14.46;65.21;97461.66;4914983;29;20040;-77
2021/09/12 03:26:30;;;;;;;2.40;2.20;;;;;;;14.44;64.88;97454.06;4932200;29;20031;-77
2021/09/12 03:28:55;;;;;;;1.52;1.38;;;;;;;14.39;65.16;97460.09;4884221;29;20030;-77
2021/09/12 03:31:20;;;;;;;3.03;1.65;;;;;;;14.37;64.59;97456.94;4899253;29;20083;-77
2021/09/12 03:33:46;;;;;;;3.05;1.80;;;;;;;14.40;64.76;97455.66;4932025;29;20363;-77
2021/09/12 03:36:11;;;;;;;2.92;2.10;;;;;;;14.32;64.65;97450.91;4899445;29;20039;-77
2021/09/12 03:38:37;;;;;;;2.60;1.73;;;;;;;14.22;64.53;97452.50;4915113;29;20093;-77
2021/09/12 03:41:02;;;;;;;4.50;2.17;;;;;;;14.19;65.22;97450.38;4899294;29;20031;-77
2021/09/12 03:43:28;;;;;;;2.28;2.08;;;;;;;14.14;65.06;97442.53;4915175;29;20547;-78
2021/09/12 03:45:56;;;;;;;3.60;2.40;;;;;;;14.10;65.14;97441.47;4915219;29;20444;-78
2021/09/12 03:48:21;;;;;;;2.33;2.13;;;;;;;14.13;65.37;97448.03;4915261;29;20063;-77
2021/09/12 03:50:47;;;;;;;2.08;1.85;;;;;;;14.12;65.28;97441.19;4883510;29;20070;-77
2021/09/12 03:53:12;;;;;;;2.47;1.92;;;;;;;14.12;65.16;97436.78;4946492;29;20383;-77
2021/09/12 03:55:37;;;;;;;2.88;1.83;;;;;;;14.15;64.96;97441.47;4925513;29;20326;-77
2021/09/12 03:58:03;;;;;;;3.58;1.70;;;;;;;14.15;65.14;97440.69;4930716;29;20043;-77
2021/09/12 04:00:28;;;;;;;2.22;1.88;;;;;;;14.16;64.84;97444.88;4883748;29;20044;-77
2021/09/12 04:02:54;;;;;;;2.45;2.10;;;;;;;14.12;64.85;97446.44;4914365;29;20083;-77
2021/09/12 04:05:19;;;;;;;2.13;1.90;;;;;;;14.14;65.20;97439.13;4899013;29;20043;-77
2021/09/12 04:07:47;;;;;;;2.47;2.00;;;;;;;14.17;64.67;97438.59;4914649;29;20617;-77
2021/09/12 04:10:12;;;;;;;3.00;2.15;;;;;;;14.23;64.84;97455.88;4915055;29;20111;-77
2021/09/12 04:12:38;;;;;;;2.30;1.90;;;;;;;14.21;65.02;97442.28;4934607;29;20028;-77
2021/09/12 04:15:04;;;;;;;2.30;2.10;;;;;;;14.28;65.06;97448.03;4902805;29;20552;-77
2021/09/12 04:17:29;;;;;;;3.83;2.15;;;;;;;14.25;64.82;97438.06;4935607;29;20488;-77
2021/09/12 04:19:54;;;;;;;2.33;1.90;;;;;;;14.31;64.41;97454.56;4902695;29;20104;-77
2021/09/12 04:22:20;;;;;;;4.40;2.00;;;;;;;14.29;64.25;97446.19;4902706;29;20036;-77
2021/09/12 04:24:45;;;;;;;2.30;2.00;;;;;;;14.19;64.76;97447.00;4949620;29;20040;-77
2021/09/12 04:27:10;;;;;;;1.67;1.58;;;;;;;14.17;64.91;97452.50;4902727;29;20111;-77
2021/09/12 04:29:36;;;;;;;3.20;2.25;;;;;;;14.07;64.96;97447.25;4902261;29;20134;-77
2021/09/12 04:32:02;;;;;;;3.00;2.20;;;;;;;13.93;65.41;97449.56;4902904;29;20027;-77
2021/09/12 04:34:27;;;;;;;2.53;1.75;;;;;;;13.91;65.19;97454.25;4934802;29;20036;-77
2021/09/12 04:36:52;;;;;;;4.07;2.00;;;;;;;13.86;65.19;97449.81;4902453;29;20028;-77
2021/09/12 04:39:18;;;;;;;4.15;1.90;;;;;;;13.87;64.97;97455.84;4902212;29;20031;-77
2021/09/12 04:41:44;;;;;;;3.35;2.00;;;;;;;13.83;65.11;97455.56;4928106;29;20050;-77
2021/09/12 04:44:11;;;;;;;1.70;1.60;;;;;;;13.75;65.38;97450.03;4917778;29;20480;-77
2021/09/12 04:46:36;;;;;;;2.22;2.03;;;;;;;13.74;65.04;97453.69;4923380;29;20050;-77
2021/09/12 04:49:02;;;;;;;2.67;2.00;;;;;;;13.61;65.33;97458.38;4920911;29;20039;-77
2021/09/12 04:51:27;;;;;;;2.97;2.00;;;;;;;13.57;65.59;97454.72;4952534;29;20035;-77
2021/09/12 04:53:55;;;;;;;2.03;1.50;;;;;;;13.60;65.77;97461.25;4968513;28;20031;-77
2021/09/12 04:56:21;;;;;;;2.30;1.80;;;;;;;13.59;65.46;97452.63;4952826;29;20039;-77
2021/09/12 04:58:46;;;;;;;2.72;1.73;;;;;;;13.61;65.26;97457.59;4939238;29;20048;-77
2021/09/12 05:01:12;;;;;;;3.03;2.00;;;;;;;13.58;65.68;97453.66;4945498;29;20043;-77
2021/09/12 05:03:37;;;;;;;2.17;1.80;;;;;;;13.52;65.70;97454.69;4928411;29;20074;-77
2021/09/12 05:06:02;;;;;;;2.05;1.83;;;;;;;13.58;65.46;97463.34;4945657;29;20043;-78
2021/09/12 05:08:28;;;;;;;2.05;1.88;;;;;;;13.51;65.34;97445.25;4945209;29;20166;-78
2021/09/12 05:10:53;;;;;;;2.28;2.08;;;;;;;13.53;65.47;97448.41;4945237;29;20111;-78
2021/09/12 05:13:19;;;;;;;2.25;1.90;;;;;;;13.56;65.50;97457.56;4928648;29;20036;-77
2021/09/12 05:15:44;;;;;;;2.42;1.85;;;;;;;13.58;65.29;97466.72;4945025;29;20492;-77
2021/09/12 05:18:10;;;;;;;2.45;2.25;;;;;;;13.53;65.67;97466.72;4914417;29;20157;-77
2021/09/12 05:20:37;;;;;;;1.90;1.80;;;;;;;13.57;65.63;97470.41;4944817;29;20032;-78
2021/09/12 05:23:03;;;;;;;3.28;1.80;;;;;;;13.64;65.50;97470.13;4944380;28;20046;-77
2021/09/12 05:25:28;;;;;;;1.90;1.60;;;;;;;13.60;65.95;97464.63;4913256;29;20032;-77
2021/09/12 05:27:54;;;;;;;3.85;2.38;;;;;;;13.70;66.00;97469.13;4913232;29;20115;-77
2021/09/12 05:30:19;;;;;;;2.75;2.20;;;;;;;13.75;65.57;97463.91;4960562;28;20047;-77
2021/09/12 05:32:46;;;;;;;2.00;1.80;;;;;;;13.80;65.84;97463.16;4950159;29;20255;-77
2021/09/12 05:35:13;;;;;;;2.35;1.83;;;;;;;13.77;66.18;97459.19;4952802;28;20035;-77
2021/09/12 05:37:39;;;;;;;2.35;1.80;;;;;;;13.88;66.07;97470.50;4951522;29;20093;-78
2021/09/12 05:40:05;;;;;;;2.28;1.90;;;;;;;13.96;66.12;97469.19;4936177;29;20027;-78
2021/09/12 05:42:30;;;;;;;3.58;2.45;;;;;;;14.00;65.96;97471.06;4953131;28;20039;-78
2021/09/12 05:44:56;;;;;;;2.60;2.00;;;;;;;14.05;65.98;97476.28;4920088;29;20034;-78
2021/09/12 05:47:21;;;;;;;2.42;2.22;;;;;;;14.10;65.87;97474.72;4951936;29;20039;-77
2021/09/12 05:49:46;;;;;;;2.85;1.88;;;;;;;14.21;66.06;97476.31;4951374;29;20035;-78
2021/09/12 05:52:12;;;;;;;2.50;2.10;;;;;;;14.27;66.04;97475.25;4951574;29;20090;-78
2021/09/12 05:54:37;;;;;;;2.97;2.20;;;;;;;14.27;66.08;97471.88;4935414;29;20031;-77
2021/09/12 05:57:05;;;;;;;3.17;2.38;;;;;;;14.29;66.13;97475.81;4951941;28;20034;-78
2021/09/12 05:59:30;;;;;;;2.28;1.92;;;;;;;14.33;66.06;97484.72;4951662;29;20439;-78
2021/09/12 06:01:56;;;;;;;3.75;2.38;;;;;;;14.35;66.11;97480.00;4935535;29;20083;-78
2021/09/12 06:04:21;;;;;;;2.75;2.55;;;;;;;14.35;66.46;97484.44;4919453;29;20145;-78
2021/09/12 06:06:46;;;;;;;2.92;2.45;;;;;;;14.39;66.21;97488.13;4935331;29;20491;-78
2021/09/12 06:09:12;;;;;;;2.95;2.65;;;;;;;14.47;66.62;97492.06;4931021;29;20037;-78
2021/09/12 06:11:37;;;;;;;3.88;2.92;;;;;;;14.50;66.52;97486.31;4945578;29;20484;-78
2021/09/12 06:14:02;;;;;;;2.88;2.35;;;;;;;14.59;66.65;97500.47;4951040;29;20035;-77
2021/09/12 06:16:28;;;;;;;2.95;2.60;;;;;;;14.62;66.33;97497.34;4945305;29;20036;-78
2021/09/12 06:18:53;;;;;;;2.95;2.53;;;;;;;14.72;67.13;97499.97;4933852;29;20066;-78
2021/09/12 06:21:19;;;;;;;2.55;2.22;;;;;;;14.84;66.75;97493.66;4951039;29;20039;-78
2021/09/12 06:23:44;;;;;;;2.72;2.53;;;;;;;14.94;66.49;97488.38;4955029;28;20504;-78
2021/09/12 06:26:12;;;;;;;2.92;2.10;;;;;;;15.01;66.30;97491.56;4916112;29;20039;-78
2021/09/12 06:28:38;;;;;;;3.90;2.72;;;;;;;15.12;66.40;97493.09;4916191;29;20036;-78
2021/09/12 06:31:03;;;;;;;2.85;2.55;;;;;;;15.25;66.34;97490.94;4915935;29;20094;-78
2021/09/12 06:33:29;;;;;;;3.40;2.75;;;;;;;15.35;66.30;97485.69;4946866;28;20046;-78
2021/09/12 06:35:56;;;;;;;2.85;2.28;;;;;;;15.44;66.37;97489.34;4916241;29;20050;-78
2021/09/12 06:38:21;;;;;;;3.22;2.72;;;;;;;15.61;66.19;97493.47;4931791;29;20100;-78
2021/09/12 06:40:46;;;;;;;2.60;2.13;;;;;;;15.70;66.10;97491.88;4931234;29;20080;-78
2021/09/12 06:43:12;;;;;;;4.35;2.90;;;;;;;15.84;65.98;97490.25;4931553;29;20024;-78
2021/09/12 06:45:38;;;;;;;4.15;2.75;;;;;;;15.93;66.10;97487.84;4915840;29;20031;-78
2021/09/12 06:48:03;;;;;;;3.10;2.30;;;;;;;16.08;65.93;97486.97;4915698;29;20451;-78
2021/09/12 06:50:29;;;;;;;4.63;2.92;;;;;;;16.26;65.90;97498.66;4915656;29;20044;-78
2021/09/12 06:52:55;;;;;;;3.17;2.83;;;;;;;16.41;65.63;97495.16;4946831;29;20327;-78
2021/09/12 06:55:20;;;;;;;3.70;2.80;;;;;;;16.59;65.26;97491.88;4947539;29;20448;-78
2021/09/12 06:57:46;;;;;;;5.22;3.70;;;;;;;16.80;65.36;97494.34;4931405;29;20035;-78
2021/09/12 07:00:11;;;;;;;3.65;2.60;;;;;;;17.02;64.65;97489.41;4947608;29;20440;-77
2021/09/12 07:02:38;;;;;;;3.53;2.97;;;;;;;17.23;63.72;97489.22;4931124;29;20031;-78
2021/09/12 07:05:05;;;;;;;3.92;3.53;;;;;;;17.42;63.61;97491.91;4915279;29;20044;-78
2021/09/12 07:07:31;;;;;;;4.32;3.60;;;;;;;17.67;62.87;97492.69;4931607;29;20057;-78
2021/09/12 07:09:56;;;;;;;3.92;3.25;;;;;;;17.88;62.81;97501.91;4899568;29;20035;-78
2021/09/12 07:12:21;;;;;;;3.33;3.03;;;;;;;18.12;62.32;97495.78;4931408;29;20031;-78
2021/09/12 07:14:47;;;;;;;4.47;3.50;;;;;;;18.29;61.34;97492.66;4930756;29;20399;-78
2021/09/12 07:17:13;;;;;;;4.63;3.88;;;;;;;18.49;61.28;97494.97;4947150;29;20078;-78
2021/09/12 07:19:39;;;;;;;4.07;3.55;;;;;;;18.77;60.54;97487.16;4899553;29;20059;-78
2021/09/12 07:22:04;;;;;;;4.10;3.22;;;;;;;18.99;60.15;97505.00;4930923;29;20102;-77
2021/09/12 07:24:30;;;;;;;3.72;3.33;;;;;;;19.25;59.33;97502.69;4899553;29;20038;-77
2021/09/12 07:26:56;;;;;;;3.13;2.83;;;;;;;19.55;58.33;97500.56;4931149;29;20043;-78
2021/09/12 07:29:21;;;;;;;5.75;3.65;;;;;;;19.76;57.70;97500.19;4931810;29;20028;-77
2021/09/12 07:31:47;;;;;;;3.72;3.15;;;;;;;20.08;57.14;97501.84;4915052;29;20043;-77
2021/09/12 07:34:12;;;;;;;5.07;3.13;;;;;;;20.26;56.99;97508.06;4915380;29;20464;-78
2021/09/12 07:36:38;;;;;;;3.60;3.30;;;;;;;20.53;56.44;97512.47;4931406;29;20055;-78
2021/09/12 07:39:03;;;;;;;3.17;2.88;;;;;;;20.79;55.26;97509.25;4931763;29;20086;-77
2021/09/12 07:41:29;;;;;;;3.15;2.60;;;;;;;21.07;54.67;97507.22;4931066;29;20036;-78
2021/09/12 07:43:54;;;;;;;2.25;2.05;;;;;;;21.31;54.17;97509.50;4883702;29;20055;-77
2021/09/12 07:46:19;;;;;;;2.42;2.22;;;;;;;21.53;54.05;97515.06;4933307;29;20036;-78
2021/09/12 07:48:45;;;;;;;2.35;1.85;;;;;;;21.67;53.77;97511.19;4951060;29;20103;-78
2021/09/12 07:51:10;;;;;;;2.40;2.20;;;;;;;21.81;53.32;97503.09;4918930;29;20040;-78
2021/09/12 07:53:36;;;;;;;2.28;2.05;;;;;;;22.06;52.98;97519.38;4918731;29;20068;-78
2021/09/12 07:56:02;;;;;;;2.85;1.92;;;;;;;22.33;51.77;97515.66;4950427;29;20019;-78
2021/09/12 07:58:29;;;;;;;3.17;1.80;;;;;;;22.34;51.73;97511.91;4950855;29;20166;-78
2021/09/12 08:00:54;;;;;;;3.28;1.60;;;;;;;22.62;50.96;97511.59;4950326;29;20106;-78
2021/09/12 08:03:20;;;;;;;1.80;1.70;;;;;;;22.87;50.56;97511.84;4934234;29;20039;-78
2021/09/12 08:05:45;;;;;;;1.80;1.70;;;;;;;23.18;49.85;97523.03;4934424;29;20569;-78
2021/09/12 08:08:10;;;;;;;2.03;1.80;;;;;;;23.17;49.28;97505.53;4950849;29;20028;-78
2021/09/12 08:10:36;;;;;;;1.90;1.40;;;;;;;23.40;48.73;97513.25;4918504;29;20038;-78
2021/09/12 08:13:01;;;;;;;1.77;1.40;;;;;;;23.51;47.32;97514.47;4934331;29;20063;-78
2021/09/12 08:15:27;;;;;;;1.67;1.40;;;;;;;23.43;48.24;97517.16;4918780;29;20051;-79
2021/09/12 08:17:53;;;;;;;1.40;1.30;;;;;;;23.46;47.44;97508.53;4918895;29;20032;-78
2021/09/12 08:20:18;;;;;;;2.25;1.77;;;;;;;23.58;47.21;97510.50;4934292;29;20463;-78
2021/09/12 08:22:44;;;;;;;2.38;1.45;;;;;;;23.81;45.53;97519.78;4933467;29;20035;-79
2021/09/12 08:25:10;;;;;;;1.52;1.25;;;;;;;24.07;44.51;97513.50;4918295;29;20035;-79
2021/09/12 08:27:35;;;;;;;1.52;1.40;;;;;;;23.78;45.03;97511.66;4950479;29;20082;-78
2021/09/12 08:30:01;;;;;;;2.10;1.30;;;;;;;23.96;44.51;97510.47;4918070;29;20098;-78
2021/09/12 08:32:26;;;;;;;1.33;0.88;;;;;;;24.11;44.07;97519.72;4934202;29;20032;-79
2021/09/12 08:34:52;;;;;;;4.00;1.20;;;;;;;24.17;43.35;97525.66;4918726;29;20127;-79
2021/09/12 08:37:17;;;;;;;1.73;1.40;;;;;;;24.29;43.62;97525.72;4950057;29;20031;-78
2021/09/12 08:39:43;;;;;;;1.27;1.17;;;;;;;24.30;42.95;97528.03;4935788;29;20036;-78
2021/09/12 08:42:15;;;;;;;1.42;1.13;;;;;;;24.27;42.88;97531.34;4918323;29;20040;-78
2021/09/12 08:44:44;;;;;;;1.92;1.30;;;;;;;24.45;42.54;97531.22;4933600;29;20039;-78
2021/09/12 08:47:09;;;;;;;2.38;1.15;;;;;;;24.58;42.41;97534.75;4934079;29;20098;-79
2021/09/12 08:49:35;;;;;;;1.67;1.30;;;;;;;24.41;42.76;97533.75;4934067;29;20475;-78
2021/09/12 08:52:00;;;;;;;1.95;1.33;;;;;;;24.62;42.87;97532.97;4933609;29;20300;-78
2021/09/12 08:54:26;;;;;;;2.28;1.27;;;;;;;24.36;43.41;97523.31;4902424;29;20031;-79
2021/09/12 08:56:51;;;;;;;1.45;1.35;;;;;;;24.76;42.01;97533.47;4949249;28;20130;-78
2021/09/12 08:59:28;;;;;;;1.80;1.50;;;;;;;24.49;42.33;97524.91;4933896;29;20053;-78
2021/09/12 09:01:55;;;;;;;1.50;1.20;;;;;;;24.73;42.35;97523.47;4934053;29;20027;-80
2021/09/12 09:04:21;;;;;;;2.33;1.20;;;;;;;24.94;42.11;97517.31;4933240;29;20483;-78
2021/09/12 09:06:46;;;;;;;1.88;1.10;;;;;;;24.94;43.13;97518.09;4918054;29;20047;-78
2021/09/12 09:09:12;;;;;;;2.92;1.50;;;;;;;24.82;43.66;97521.50;4918042;29;20034;-79
2021/09/12 09:11:40;;;;;;;1.50;1.40;;;;;;;24.97;42.35;97522.00;4918152;29;20028;-78
2021/09/12 09:14:19;;;;;;;1.95;1.70;;;;;;;25.21;41.33;97510.59;4933455;29;20036;-78
2021/09/12 09:16:51;;;;;;;1.88;1.33;;;;;;;24.93;43.84;97516.50;4918040;29;20039;-78
2021/09/12 09:19:18;;;;;;;2.13;1.40;;;;;;;25.05;43.67;97523.75;4917949;29;20031;-78
2021/09/12 09:21:45;;;;;;;1.77;1.40;;;;;;;25.12;42.50;97518.69;4934909;29;20036;-79
2021/09/12 09:24:15;;;;;;;1.60;1.50;;;;;;;25.29;41.79;97528.38;4917350;29;20491;-78
2021/09/12 09:26:42;;;;;;;1.27;1.17;;;;;;;25.57;41.13;97530.38;4949169;29;20046;-79
2021/09/12 09:29:08;;;;;;;2.17;1.55;;;;;;;25.67;41.01;97521.16;4917869;29;20154;-78
2021/09/12 09:31:34;;;;;;;2.33;1.50;;;;;;;25.69;40.72;97535.72;4933387;29;20063;-78
2021/09/12 09:34:14;;;;;;;2.67;1.20;;;;;;;25.01;42.47;97528.19;4932923;29;20547;-79
2021/09/12 09:36:39;;;;;;;1.73;1.33;;;;;;;24.70;43.75;97529.44;4933535;29;20408;-78
2021/09/12 09:39:05;;;;;;;1.20;1.10;;;;;;;24.67;43.93;97528.22;4917181;29;20024;-78
2021/09/12 09:41:35;;;;;;;1.30;1.20;;;;;;;24.42;44.11;97534.50;4901584;29;20035;-78
2021/09/12 09:44:11;;;;;;;1.60;1.50;;;;;;;23.99;45.69;97532.97;4917007;29;20024;-78
2021/09/12 09:46:43;;;;;;;2.47;1.23;;;;;;;24.12;45.32;97523.97;4949239;29;20488;-77
2021/09/12 09:49:25;;;;;;;2.05;1.10;;;;;;;24.70;43.91;97524.13;4932757;29;20099;-78
2021/09/12 09:51:52;;;;;;;1.42;1.02;;;;;;;25.33;40.75;97523.94;4948477;29;20491;-79
2021/09/12 09:54:19;;;;;;;1.55;1.27;;;;;;;25.21;38.18;97524.69;4916391;29;20066;-79
2021/09/12 09:56:46;;;;;;;1.77;1.17;;;;;;;25.12;40.37;97521.34;4917310;29;20043;-78
2021/09/12 09:59:14;;;;;;;1.95;1.10;;;;;;;24.96;39.81;97531.84;4932798;29;20527;-78
2021/09/12 10:01:39;;;;;;;1.13;1.00;;;;;;;24.99;39.67;97527.75;4900825;29;20019;-79
2021/09/12 10:04:05;;;;;;;1.35;1.20;;;;;;;24.95;40.03;97518.84;4900179;29;20038;-78
2021/09/12 10:06:30;;;;;;;1.58;1.48;;;;;;;24.82;40.85;97520.72;4932357;29;20028;-78
2021/09/12 10:08:56;;;;;;;1.42;1.33;;;;;;;24.74;41.89;97517.03;4931812;29;20632;-77
2021/09/12 10:11:21;;;;;;;1.92;1.50;;;;;;;24.16;42.83;97518.75;4932580;29;20040;-78
2021/09/12 10:13:48;;;;;;;1.40;1.30;;;;;;;24.33;42.88;97512.53;4916275;29;20035;-78
2021/09/12 10:16:15;;;;;;;1.45;1.35;;;;;;;24.61;41.52;97518.88;4916790;29;20110;-78
2021/09/12 10:18:41;;;;;;;2.70;1.30;;;;;;;24.82;40.39;97513.50;4932129;29;20373;-79
2021/09/12 10:21:23;;;;;;;1.50;1.33;;;;;;;24.69;40.15;97519.91;4916550;29;20035;-79
2021/09/12 10:24:03;;;;;;;1.30;1.15;;;;;;;24.68;40.56;97516.47;4916090;29;20153;-78
2021/09/12 10:26:35;;;;;;;1.48;1.38;;;;;;;24.53;42.36;97513.63;4916551;29;20074;-78
2021/09/12 10:29:03;;;;;;;1.55;1.30;;;;;;;24.77;40.68;97503.06;4916353;29;20118;-78
2021/09/12 10:31:32;;;;;;;1.42;1.33;;;;;;;25.09;41.13;97502.56;4900622;29;20537;-78
2021/09/12 10:34:13;;;;;;;1.75;1.45;;;;;;;24.91;40.76;97502.75;4915891;29;20518;-79
2021/09/12 10:36:43;;;;;;;1.83;1.17;;;;;;;24.66;41.65;97499.28;4900645;29;20546;-78
2021/09/12 10:39:23;;;;;;;1.48;1.30;;;;;;;24.94;40.90;97494.09;4947645;29;20471;-78
2021/09/12 10:42:14;;;;;;;2.45;1.38;;;;;;;25.08;40.16;97493.03;4947630;29;20024;-78
2021/09/12 10:44:40;;;;;;;1.52;1.23;;;;;;;25.23;39.32;97493.13;4931917;29;20039;-78
2021/09/12 10:47:12;;;;;;;1.73;1.40;;;;;;;24.91;40.54;97496.66;4931816;29;20107;-78
2021/09/12 10:49:37;;;;;;;4.35;1.83;;;;;;;25.35;41.14;97495.06;4947461;29;20062;-78
2021/09/12 10:52:03;;;;;;;1.50;1.38;;;;;;;25.50;39.09;97485.63;4915520;29;20122;-78
2021/09/12 10:54:29;;;;;;;2.38;1.20;;;;;;;26.03;37.81;97495.53;4915495;29;20035;-78
2021/09/12 10:57:10;;;;;;;1.30;1.20;;;;;;;26.13;38.26;97490.53;4948438;29;20058;-78
2021/09/12 10:59:36;;;;;;;1.60;1.50;;;;;;;26.38;37.69;97490.44;4931916;29;20027;-78
2021/09/12 11:02:01;;;;;;;1.42;1.33;;;;;;;25.98;38.08;97491.25;4947490;29;20036;-78
2021/09/12 11:04:32;;;;;;;1.20;0.90;;;;;;;25.97;38.74;97485.09;4915254;29;20392;-78
2021/09/12 11:07:03;;;;;;;2.28;1.40;;;;;;;25.69;39.74;97477.03;4931902;29;20059;-78
2021/09/12 11:09:30;;;;;;;1.38;1.27;;;;;;;26.10;38.75;97480.53;4931520;29;20066;-78
2021/09/12 11:12:01;;;;;;;1.55;1.40;;;;;;;26.47;37.97;97476.91;4931974;29;20043;-78
2021/09/12 11:14:28;;;;;;;1.25;1.15;;;;;;;26.55;36.71;97467.97;4947274;29;20042;-79
2021/09/12 11:16:53;;;;;;;1.30;1.20;;;;;;;26.79;35.71;97474.34;4931373;29;20130;-79
2021/09/12 11:19:19;;;;;;;1.95;1.10;;;;;;;26.95;36.40;97472.44;4931501;29;20111;-78
2021/09/12 11:21:50;;;;;;;1.30;1.20;;;;;;;27.20;36.12;97480.28;4899505;29;20724;-78
2021/09/12 11:24:21;;;;;;;2.55;1.10;;;;;;;27.29;36.92;97475.56;4931495;29;20370;-78
2021/09/12 11:26:55;;;;;;;1.55;1.40;;;;;;;27.41;35.96;97467.44;4947630;29;20563;-78
2021/09/12 11:29:25;;;;;;;1.20;1.10;;;;;;;27.71;35.59;97466.94;4900217;29;20039;-78
2021/09/12 11:31:58;;;;;;;1.58;1.08;;;;;;;27.50;36.83;97471.81;4915297;29;20455;-78